createdAt,value
2022-12-31T00:00:41.654Z,13.52
2022-12-31T00:03:27.636Z,14.05
2022-12-31T00:06:15.488Z,12.55
2022-12-31T00:09:04.058Z,13.15
2022-12-31T00:11:49.218Z,13.27
2022-12-31T00:14:36.618Z,13.45
2022-12-31T00:17:21.885Z,13.00
2022-12-31T00:20:08.630Z,13.73
2022-12-31T00:22:54.364Z,12.70
2022-12-31T00:25:39.703Z,13.43
2022-12-31T00:28:25.117Z,12.93
2022-12-31T00:31:16.473Z,13.02
2022-12-31T00:34:02.831Z,12.70
2022-12-31T00:36:48.443Z,12.70
2022-12-31T00:39:34.485Z,12.70
2022-12-31T00:42:19.968Z,12.57
2022-12-31T00:45:06.021Z,13.27
2022-12-31T00:47:53.037Z,11.73
2022-12-31T00:50:38.582Z,11.85
2022-12-31T00:53:24.475Z,11.73
2022-12-31T00:56:12.970Z,11.90
2022-12-31T00:58:59.542Z,12.75
2022-12-31T01:01:45.299Z,12.25
2022-12-31T01:04:32.633Z,12.02
2022-12-31T01:07:18.263Z,12.50
2022-12-31T01:10:04.009Z,11.45
2022-12-31T01:12:49.366Z,11.55
2022-12-31T01:15:35.753Z,14.20
2022-12-31T01:18:21.438Z,11.13
2022-12-31T01:21:12.148Z,11.07
2022-12-31T01:23:58.510Z,11.40
2022-12-31T01:26:44.610Z,10.98
2022-12-31T01:29:30.237Z,10.68
2022-12-31T01:32:15.634Z,11.73
2022-12-31T01:35:00.853Z,11.50
2022-12-31T01:37:47.772Z,10.63
2022-12-31T01:40:37.338Z,10.77
2022-12-31T01:43:23.096Z,11.70
2022-12-31T01:46:10.451Z,11.50
2022-12-31T01:49:00.739Z,11.50
2022-12-31T01:51:49.825Z,10.93
2022-12-31T01:54:42.152Z,11.55
2022-12-31T01:57:28.247Z,11.15
2022-12-31T02:00:14.678Z,10.95
2022-12-31T02:03:00.453Z,11.10
2022-12-31T02:05:50.069Z,10.65
2022-12-31T02:08:41.784Z,10.63
2022-12-31T02:11:31.519Z,11.40
2022-12-31T02:14:21.056Z,10.68
2022-12-31T02:17:13.303Z,10.00
2022-12-31T02:20:33.756Z,10.13
2022-12-31T02:23:51.709Z,10.50
2022-12-31T02:26:55.013Z,9.82
2022-12-31T02:30:10.682Z,11.07
2022-12-31T02:33:11.555Z,10.70
2022-12-31T02:36:01.420Z,9.80
2022-12-31T02:38:48.993Z,10.55
2022-12-31T02:41:50.176Z,9.77
2022-12-31T02:44:37.873Z,9.82
2022-12-31T02:47:37.810Z,9.67
2022-12-31T02:50:35.686Z,10.25
2022-12-31T02:53:43.731Z,10.40
2022-12-31T02:56:36.194Z,9.70
2022-12-31T02:59:46.888Z,9.77
2022-12-31T03:02:36.666Z,11.35
2022-12-31T03:05:25.131Z,10.75
2022-12-31T03:08:11.017Z,10.80
2022-12-31T03:10:57.315Z,11.60
2022-12-31T03:13:42.809Z,11.27
2022-12-31T03:16:28.391Z,11.65
2022-12-31T03:19:34.038Z,10.90
2022-12-31T03:22:28.597Z,11.63
2022-12-31T03:25:35.512Z,11.95
2022-12-31T03:28:24.790Z,11.43
2022-12-31T03:31:10.297Z,13.23
2022-12-31T03:33:55.985Z,11.27
2022-12-31T03:36:42.845Z,12.30
2022-12-31T03:39:28.637Z,12.32
2022-12-31T03:42:13.895Z,11.88
2022-12-31T03:44:59.186Z,12.15
2022-12-31T03:47:45.016Z,12.02
2022-12-31T03:50:30.529Z,12.57
2022-12-31T03:53:17.924Z,11.73
2022-12-31T03:56:03.691Z,11.82
2022-12-31T03:58:49.167Z,12.20
2022-12-31T04:01:34.527Z,11.75
2022-12-31T04:04:20.441Z,11.85
2022-12-31T04:07:06.012Z,11.70
2022-12-31T04:09:52.717Z,11.65
2022-12-31T04:12:38.967Z,11.38
2022-12-31T04:15:24.419Z,11.40
2022-12-31T04:18:09.541Z,11.93
2022-12-31T04:20:54.996Z,11.27
2022-12-31T04:23:40.208Z,12.32
2022-12-31T04:26:26.984Z,11.60
2022-12-31T04:29:12.749Z,10.73
2022-12-31T04:31:58.285Z,11.07
2022-12-31T04:34:44.157Z,11.57
2022-12-31T04:37:30.139Z,11.68
2022-12-31T04:40:16.070Z,11.37
2022-12-31T04:43:03.213Z,12.63
2022-12-31T04:45:49.077Z,12.45
2022-12-31T04:48:35.153Z,12.20
2022-12-31T04:51:22.337Z,11.90
2022-12-31T04:54:07.997Z,11.85
2022-12-31T04:56:53.878Z,12.85
2022-12-31T04:59:40.959Z,12.32
2022-12-31T05:02:26.394Z,11.93
2022-12-31T05:05:12.292Z,12.68
2022-12-31T05:07:57.965Z,12.70
2022-12-31T05:10:45.014Z,12.55
2022-12-31T05:13:33.540Z,12.05
2022-12-31T05:16:21.132Z,12.73
2022-12-31T05:19:09.687Z,12.65
2022-12-31T05:22:13.791Z,12.68
2022-12-31T05:25:00.422Z,12.57
2022-12-31T05:27:46.153Z,13.10
2022-12-31T05:30:31.604Z,12.68
2022-12-31T05:33:19.790Z,13.73
2022-12-31T05:36:06.225Z,13.27
2022-12-31T05:38:51.850Z,12.98
2022-12-31T05:41:38.647Z,13.95
2022-12-31T05:44:24.473Z,15.48
2022-12-31T05:47:10.155Z,17.50
2022-12-31T05:49:57.313Z,15.37
2022-12-31T05:52:47.399Z,15.15
2022-12-31T05:55:33.415Z,16.23
2022-12-31T05:58:19.373Z,15.10
2022-12-31T06:01:05.463Z,15.23
2022-12-31T06:03:51.065Z,15.23
2022-12-31T06:06:38.134Z,15.15
2022-12-31T06:09:24.087Z,16.00
2022-12-31T06:12:09.873Z,15.00
2022-12-31T06:14:55.619Z,15.48
2022-12-31T06:17:40.854Z,15.57
2022-12-31T06:20:26.372Z,16.13
2022-12-31T06:23:12.939Z,17.70
2022-12-31T06:26:01.777Z,17.88
2022-12-31T06:28:47.313Z,17.58
2022-12-31T06:31:33.182Z,18.23
2022-12-31T06:34:18.845Z,19.13
2022-12-31T06:37:04.394Z,18.75
2022-12-31T06:39:51.187Z,19.23
2022-12-31T06:42:36.603Z,19.58
2022-12-31T06:45:21.758Z,20.05
2022-12-31T06:48:07.540Z,20.83
2022-12-31T06:50:53.394Z,21.20
2022-12-31T06:53:38.795Z,22.42
2022-12-31T06:56:33.875Z,21.95
2022-12-31T06:59:26.199Z,21.83
2022-12-31T07:02:26.354Z,21.42
2022-12-31T07:05:34.588Z,22.67
2022-12-31T07:08:37.803Z,20.85
2022-12-31T07:11:30.425Z,22.20
2022-12-31T07:14:27.948Z,20.23
2022-12-31T07:17:24.666Z,20.52
2022-12-31T07:20:13.197Z,21.55
2022-12-31T07:22:59.538Z,22.23
2022-12-31T07:25:55.977Z,21.55
2022-12-31T07:28:53.425Z,21.93
2022-12-31T07:31:54.850Z,22.02
2022-12-31T07:34:45.639Z,21.15
2022-12-31T07:37:39.257Z,22.77
2022-12-31T07:40:34.367Z,22.50
2022-12-31T07:43:28.136Z,21.70
2022-12-31T07:46:22.286Z,23.05
2022-12-31T07:49:11.186Z,21.88
2022-12-31T07:51:57.200Z,22.30
2022-12-31T07:54:43.056Z,22.00
2022-12-31T07:57:36.781Z,21.63
2022-12-31T08:00:23.205Z,21.48
2022-12-31T08:03:21.741Z,21.75
2022-12-31T08:06:12.478Z,22.63
2022-12-31T08:09:04.346Z,21.67
2022-12-31T08:11:55.545Z,22.63
2022-12-31T08:14:44.564Z,22.27
2022-12-31T08:17:30.305Z,22.23
2022-12-31T08:20:18.368Z,23.80
2022-12-31T08:23:20.439Z,22.67
2022-12-31T08:26:23.663Z,22.83
2022-12-31T08:29:26.815Z,25.10
2022-12-31T08:32:18.814Z,24.10
2022-12-31T08:35:12.823Z,24.55
2022-12-31T08:38:07.840Z,27.40
2022-12-31T08:41:01.425Z,32.57
2022-12-31T08:43:53.822Z,32.65
2022-12-31T08:46:45.122Z,30.83
2022-12-31T08:49:33.151Z,31.58
2022-12-31T08:52:23.287Z,30.35
2022-12-31T08:55:14.050Z,31.67
2022-12-31T08:58:12.604Z,30.73
2022-12-31T09:00:59.541Z,28.33
2022-12-31T09:04:01.468Z,26.67
2022-12-31T09:06:55.246Z,24.42
2022-12-31T09:10:01.977Z,24.77
2022-12-31T09:12:55.040Z,22.98
2022-12-31T09:15:43.937Z,22.85
2022-12-31T09:18:33.299Z,23.52
2022-12-31T09:21:19.178Z,22.83
2022-12-31T09:24:09.320Z,24.70
2022-12-31T09:27:04.731Z,24.17
2022-12-31T09:30:00.400Z,23.35
2022-12-31T09:33:00.782Z,23.77
2022-12-31T09:35:52.748Z,25.05
2022-12-31T09:38:52.730Z,28.10
2022-12-31T09:42:05.028Z,27.35
2022-12-31T09:45:34.440Z,25.45
2022-12-31T09:49:11.843Z,24.70
2022-12-31T09:52:11.000Z,27.30
2022-12-31T09:55:05.593Z,26.35
2022-12-31T09:58:01.941Z,25.65
2022-12-31T10:00:53.748Z,28.38
2022-12-31T10:04:03.559Z,26.55
2022-12-31T10:06:59.977Z,27.77
2022-12-31T10:09:59.657Z,28.77
2022-12-31T10:13:13.324Z,28.05
2022-12-31T10:16:40.647Z,27.85
2022-12-31T10:19:50.660Z,28.13
2022-12-31T10:23:08.698Z,28.33
2022-12-31T10:26:06.193Z,29.17
2022-12-31T10:28:58.354Z,32.45
2022-12-31T10:31:56.749Z,37.47
2022-12-31T10:34:52.926Z,34.08
2022-12-31T10:37:46.694Z,35.72
2022-12-31T10:40:52.951Z,35.13
2022-12-31T10:44:09.751Z,36.88
2022-12-31T10:47:22.533Z,37.38
2022-12-31T10:50:40.540Z,28.55
2022-12-31T10:54:01.535Z,25.67
2022-12-31T10:57:20.655Z,21.08
2022-12-31T11:00:13.997Z,18.90
2022-12-31T11:03:34.279Z,21.48
2022-12-31T11:06:50.331Z,25.05
2022-12-31T11:10:04.140Z,23.85
2022-12-31T11:13:24.413Z,21.45
2022-12-31T11:16:20.446Z,17.63
2022-12-31T11:19:18.190Z,13.50
2022-12-31T11:22:21.946Z,12.82
2022-12-31T11:25:22.625Z,11.35
2022-12-31T11:28:19.036Z,11.38
2022-12-31T11:31:18.825Z,12.47
2022-12-31T11:34:24.248Z,10.55
2022-12-31T11:37:29.629Z,10.02
2022-12-31T11:40:31.162Z,9.73
2022-12-31T11:43:35.655Z,8.57
2022-12-31T11:46:43.904Z,8.17
2022-12-31T11:49:42.603Z,8.20
2022-12-31T11:52:49.776Z,7.32
2022-12-31T11:55:49.367Z,9.95
2022-12-31T11:58:34.625Z,8.90
2022-12-31T12:01:25.010Z,8.57
2022-12-31T12:04:11.267Z,9.35
2022-12-31T12:06:58.312Z,6.95
2022-12-31T12:09:45.574Z,7.13
2022-12-31T12:12:39.135Z,6.30
2022-12-31T12:15:27.759Z,6.00
2022-12-31T12:18:28.400Z,6.22
2022-12-31T12:21:16.728Z,5.95
2022-12-31T12:24:05.955Z,6.00
2022-12-31T12:26:51.603Z,6.25
2022-12-31T12:29:39.903Z,6.17
2022-12-31T12:32:26.737Z,6.13
2022-12-31T12:35:17.271Z,6.85
2022-12-31T12:38:04.810Z,7.15
2022-12-31T12:40:57.966Z,7.05
2022-12-31T12:43:43.403Z,6.40
2022-12-31T12:46:33.490Z,6.40
2022-12-31T12:49:24.097Z,5.95
2022-12-31T12:52:37.748Z,6.10
2022-12-31T12:55:29.181Z,6.43
2022-12-31T12:58:32.139Z,5.80
2022-12-31T13:01:26.251Z,6.15
2022-12-31T13:04:35.175Z,7.45
2022-12-31T13:07:31.539Z,7.70
2022-12-31T13:10:30.046Z,8.18
2022-12-31T13:13:25.843Z,8.70
2022-12-31T13:16:19.320Z,8.23
2022-12-31T13:19:11.806Z,6.70
2022-12-31T13:22:04.884Z,7.05
2022-12-31T13:25:00.990Z,6.43
2022-12-31T13:27:51.147Z,7.07
2022-12-31T13:30:41.711Z,6.25
2022-12-31T13:33:32.250Z,6.32
2022-12-31T13:36:20.421Z,5.80
2022-12-31T13:39:11.626Z,5.63
2022-12-31T13:42:02.591Z,6.57
2022-12-31T13:44:51.680Z,6.47
2022-12-31T13:47:42.926Z,7.43
2022-12-31T13:50:33.838Z,9.40
2022-12-31T13:53:26.835Z,8.85
2022-12-31T13:56:17.217Z,8.13
2022-12-31T13:59:06.983Z,8.50
2022-12-31T14:01:57.966Z,10.43
2022-12-31T14:04:50.587Z,16.13
2022-12-31T14:07:45.759Z,15.63
2022-12-31T14:10:42.862Z,13.63
2022-12-31T14:13:40.284Z,11.07
2022-12-31T14:16:36.113Z,9.50
2022-12-31T14:19:45.138Z,8.75
2022-12-31T14:22:38.494Z,8.35
2022-12-31T14:25:29.049Z,8.07
2022-12-31T14:28:19.616Z,7.13
2022-12-31T14:31:15.673Z,6.43
2022-12-31T14:34:08.503Z,6.15
2022-12-31T14:37:01.383Z,5.60
2022-12-31T14:39:58.897Z,6.13
2022-12-31T14:42:56.020Z,5.85
2022-12-31T14:45:53.831Z,5.70
2022-12-31T14:48:48.596Z,5.55
2022-12-31T14:51:37.134Z,6.00
2022-12-31T14:54:29.087Z,6.83
2022-12-31T14:57:23.985Z,6.90
2022-12-31T15:00:26.858Z,8.85
2022-12-31T15:03:25.266Z,7.85
2022-12-31T15:06:41.134Z,8.50
2022-12-31T15:09:48.977Z,8.77
2022-12-31T15:12:56.632Z,8.98
2022-12-31T15:16:01.964Z,9.38
2022-12-31T15:19:05.157Z,9.57
2022-12-31T15:22:02.483Z,10.85
2022-12-31T15:24:48.127Z,12.87
2022-12-31T15:27:36.810Z,13.23
2022-12-31T15:30:38.611Z,15.00
2022-12-31T15:33:33.761Z,17.55
2022-12-31T15:36:21.767Z,18.88
2022-12-31T15:39:25.692Z,18.80
2022-12-31T15:42:49.191Z,18.85
2022-12-31T15:45:38.762Z,22.42
2022-12-31T15:48:29.567Z,23.60
2022-12-31T15:51:17.911Z,25.25
2022-12-31T15:54:05.285Z,23.70
2022-12-31T15:56:53.261Z,24.92
2022-12-31T15:59:39.808Z,24.48
2022-12-31T16:02:28.882Z,23.40
2022-12-31T16:05:22.885Z,26.15
2022-12-31T16:08:19.211Z,23.57
2022-12-31T16:11:06.150Z,21.35
2022-12-31T16:13:54.899Z,22.27
2022-12-31T16:16:50.945Z,20.92
2022-12-31T16:19:48.458Z,20.58
2022-12-31T16:22:38.493Z,19.13
2022-12-31T16:25:33.112Z,18.77
2022-12-31T16:28:22.123Z,18.33
2022-12-31T16:31:13.992Z,19.17
2022-12-31T16:34:05.238Z,20.83
2022-12-31T16:37:04.471Z,21.23
2022-12-31T16:40:18.757Z,21.42
2022-12-31T16:43:04.451Z,23.52
2022-12-31T16:45:50.217Z,20.67
2022-12-31T16:48:36.981Z,22.05
2022-12-31T16:51:26.320Z,24.30
2022-12-31T16:54:19.522Z,20.45
2022-12-31T16:57:06.418Z,19.38
2022-12-31T16:59:55.916Z,20.38
2022-12-31T17:02:45.275Z,19.05
2022-12-31T17:05:32.705Z,19.37
2022-12-31T17:08:24.765Z,20.73
2022-12-31T17:11:25.231Z,20.55
2022-12-31T17:14:14.843Z,21.25
2022-12-31T17:17:03.533Z,23.73
2022-12-31T17:19:50.759Z,24.70
2022-12-31T17:22:41.953Z,26.13
2022-12-31T17:25:30.032Z,21.73
2022-12-31T17:28:23.993Z,23.17
2022-12-31T17:31:31.213Z,20.52
2022-12-31T17:34:22.763Z,20.17
2022-12-31T17:37:18.393Z,20.17
2022-12-31T17:40:41.040Z,17.45
2022-12-31T17:43:11.946Z,16.55
2022-12-31T17:45:59.122Z,16.13
2022-12-31T17:48:49.653Z,17.33
2022-12-31T17:51:35.013Z,17.88
2022-12-31T17:54:20.532Z,18.42
2022-12-31T17:57:06.746Z,19.60
2022-12-31T17:59:52.330Z,17.85
2022-12-31T18:02:39.489Z,16.98
2022-12-31T18:05:25.996Z,15.25
2022-12-31T18:08:11.299Z,12.10
2022-12-31T18:10:56.966Z,12.30
2022-12-31T18:13:43.025Z,10.02
2022-12-31T18:16:28.784Z,8.98
2022-12-31T18:19:45.608Z,9.50
2022-12-31T18:22:21.543Z,10.63
2022-12-31T18:25:07.504Z,9.77
2022-12-31T18:27:53.124Z,11.43
2022-12-31T18:30:39.216Z,12.40
2022-12-31T18:33:25.790Z,12.35
2022-12-31T18:36:15.269Z,11.70
2022-12-31T18:39:00.607Z,16.45
2022-12-31T18:41:49.663Z,20.55
2022-12-31T18:44:35.249Z,20.58
2022-12-31T18:47:23.310Z,15.65
2022-12-31T18:50:12.890Z,11.60
2022-12-31T18:52:59.853Z,12.48
2022-12-31T18:55:47.896Z,9.20
2022-12-31T18:58:33.260Z,9.90
2022-12-31T19:01:30.390Z,10.32
2022-12-31T19:04:26.535Z,9.07
2022-12-31T19:07:13.079Z,12.48
2022-12-31T19:09:59.734Z,13.63
2022-12-31T19:12:45.253Z,16.47
2022-12-31T19:15:33.503Z,16.02
2022-12-31T19:18:19.653Z,16.40
2022-12-31T19:21:05.841Z,15.88
2022-12-31T19:23:51.267Z,15.43
2022-12-31T19:26:43.160Z,15.98
2022-12-31T19:29:29.484Z,16.95
2022-12-31T19:32:15.186Z,17.55
2022-12-31T19:35:01.030Z,15.50
2022-12-31T19:37:49.115Z,15.38
2022-12-31T19:40:35.138Z,16.45
2022-12-31T19:43:23.518Z,16.40
2022-12-31T19:46:12.515Z,15.02
2022-12-31T19:48:58.065Z,14.30
2022-12-31T19:51:43.636Z,14.67
2022-12-31T19:54:29.280Z,16.67
2022-12-31T19:57:15.065Z,16.58
2022-12-31T20:00:01.963Z,17.50
2022-12-31T20:02:48.519Z,17.48
2022-12-31T20:05:33.931Z,16.65
2022-12-31T20:08:22.792Z,16.42
2022-12-31T20:11:09.136Z,15.23
2022-12-31T20:13:54.367Z,13.82
2022-12-31T20:16:41.204Z,14.45
2022-12-31T20:19:26.790Z,14.00
2022-12-31T20:22:12.022Z,13.27
2022-12-31T20:24:58.359Z,13.88
2022-12-31T20:27:43.740Z,12.55
2022-12-31T20:30:29.081Z,12.32
2022-12-31T20:33:19.168Z,13.25
2022-12-31T20:36:08.812Z,11.80
2022-12-31T20:38:54.149Z,12.02
2022-12-31T20:41:39.662Z,10.63
2022-12-31T20:44:25.144Z,10.07
2022-12-31T20:47:10.514Z,9.50
2022-12-31T20:50:14.394Z,8.13
2022-12-31T20:53:00.126Z,9.65
2022-12-31T20:55:45.389Z,9.00
2022-12-31T20:58:30.953Z,8.55
2022-12-31T21:01:17.870Z,8.30
2022-12-31T21:04:05.771Z,7.93
2022-12-31T21:06:53.678Z,8.02
2022-12-31T21:09:39.451Z,8.00
2022-12-31T21:12:43.367Z,8.10
2022-12-31T21:15:29.188Z,7.97
2022-12-31T21:18:14.939Z,9.05
2022-12-31T21:21:00.700Z,8.57
2022-12-31T21:23:47.895Z,7.93
2022-12-31T21:26:34.432Z,6.70
2022-12-31T21:29:19.886Z,5.65
2022-12-31T21:32:05.399Z,7.03
2022-12-31T21:35:14.343Z,6.90
2022-12-31T21:38:00.776Z,6.75
2022-12-31T21:40:47.954Z,6.72
2022-12-31T21:43:33.676Z,6.75
2022-12-31T21:46:19.334Z,6.60
2022-12-31T21:49:05.217Z,6.70
2022-12-31T21:52:09.071Z,5.57
2022-12-31T21:55:14.055Z,6.15
2022-12-31T22:01:26.569Z,5.60
2022-12-31T22:04:35.135Z,5.88
2022-12-31T22:07:17.952Z,4.53
2022-12-31T22:10:03.543Z,4.97
2022-12-31T22:12:49.125Z,4.57
2022-12-31T22:15:36.536Z,4.65
2022-12-31T22:18:22.348Z,4.32
2022-12-31T22:21:17.715Z,3.90
2022-12-31T22:24:05.434Z,4.50
2022-12-31T22:26:52.214Z,3.97
2022-12-31T22:29:38.011Z,3.92
2022-12-31T22:32:24.604Z,3.92
2022-12-31T22:35:11.203Z,3.70
2022-12-31T22:38:00.193Z,4.40
2022-12-31T22:40:48.970Z,3.80
2022-12-31T22:43:36.141Z,4.43
2022-12-31T22:46:24.199Z,3.70
2022-12-31T22:49:11.591Z,3.92
2022-12-31T22:52:00.731Z,3.53
2022-12-31T22:54:48.589Z,3.50
2022-12-31T22:57:34.183Z,3.45
2022-12-31T23:00:19.840Z,3.17
2022-12-31T23:03:05.268Z,3.20
2022-12-31T23:05:52.997Z,3.03
2022-12-31T23:08:38.751Z,3.40
2022-12-31T23:11:24.746Z,3.70
2022-12-31T23:14:34.165Z,3.42
2022-12-31T23:17:40.140Z,3.10
2022-12-31T23:20:44.885Z,3.13
2022-12-31T23:23:32.009Z,2.88
2022-12-31T23:26:17.551Z,3.33
2022-12-31T23:29:03.203Z,3.08
2022-12-31T23:31:48.699Z,3.38
2022-12-31T23:34:34.317Z,3.90
2022-12-31T23:37:19.897Z,4.45
2022-12-31T23:40:08.238Z,4.35
2022-12-31T23:42:54.381Z,5.70
2022-12-31T23:45:39.876Z,3.97
2022-12-31T23:48:25.248Z,3.90
2022-12-31T23:51:10.831Z,4.05
2022-12-31T23:53:56.340Z,4.25
2022-12-31T23:56:43.230Z,4.30
2022-12-31T23:59:28.918Z,3.97
